createdAt,value
2022-08-22T00:02:30.075Z,100138.00
2022-08-22T00:02:57.787Z,100130.80
2022-08-22T00:03:00.233Z,100133.40
2022-08-22T00:03:02.386Z,100132.80
2022-08-22T00:05:04.287Z,100139.40
2022-08-22T00:08:00.053Z,100141.80
2022-08-22T00:10:51.338Z,100140.20
2022-08-22T00:13:38.720Z,100143.60
2022-08-22T00:16:50.219Z,100148.80
2022-08-22T00:19:42.511Z,100151.20
2022-08-22T00:22:19.677Z,100150.20
2022-08-22T00:25:11.195Z,100152.40
2022-08-22T00:27:59.692Z,100151.80
2022-08-22T00:30:29.207Z,100151.40
2022-08-22T00:33:02.423Z,100153.40
2022-08-22T00:35:36.385Z,100151.60
2022-08-22T00:38:22.085Z,100152.20
2022-08-22T00:40:53.855Z,100151.80
2022-08-22T00:43:59.293Z,100151.20
2022-08-22T00:46:56.063Z,100150.80
2022-08-22T00:49:31.250Z,100148.00
2022-08-22T00:52:38.146Z,100150.20
2022-08-22T00:55:17.890Z,100149.00
2022-08-22T00:58:30.198Z,100145.20
2022-08-22T01:01:10.483Z,100148.40
2022-08-22T01:03:44.101Z,100153.00
2022-08-22T01:06:32.650Z,100157.00
2022-08-22T01:09:11.874Z,100158.80
2022-08-22T01:11:51.810Z,100158.80
2022-08-22T01:14:38.297Z,100154.40
2022-08-22T01:17:45.362Z,100155.60
2022-08-22T01:20:34.601Z,100154.40
2022-08-22T01:23:32.674Z,100153.20
2022-08-22T01:26:19.490Z,100155.40
2022-08-22T01:29:27.818Z,100159.40
2022-08-22T01:32:37.706Z,100160.40
2022-08-22T01:35:26.594Z,100163.60
2022-08-22T01:38:18.858Z,100159.80
2022-08-22T01:41:24.714Z,100160.80
2022-08-22T01:44:02.346Z,100163.20
2022-08-22T01:46:37.464Z,100164.40
2022-08-22T01:49:14.111Z,100160.60
2022-08-22T01:52:02.859Z,100161.20
2022-08-22T01:54:31.143Z,100162.20
2022-08-22T01:57:02.738Z,100159.40
2022-08-22T01:59:53.024Z,100160.20
2022-08-22T02:02:45.921Z,100156.60
2022-08-22T02:05:46.871Z,100158.80
2022-08-22T02:08:52.457Z,100157.60
2022-08-22T02:11:50.424Z,100162.00
2022-08-22T02:14:33.212Z,100163.00
2022-08-22T02:17:17.381Z,100166.80
2022-08-22T02:20:10.640Z,100166.60
2022-08-22T02:23:00.871Z,100160.20
2022-08-22T02:25:33.158Z,100156.40
2022-08-22T02:28:15.748Z,100158.00
2022-08-22T02:31:02.358Z,100163.20
2022-08-22T02:33:46.274Z,100167.00
2022-08-22T02:36:19.124Z,100168.00
2022-08-22T02:39:07.974Z,100167.00
2022-08-22T02:41:57.416Z,100165.60
2022-08-22T02:44:25.199Z,100163.60
2022-08-22T02:47:02.251Z,100165.80
2022-08-22T02:49:47.434Z,100171.80
2022-08-22T02:52:28.720Z,100173.20
2022-08-22T02:55:37.949Z,100171.80
2022-08-22T02:58:19.100Z,100172.40
2022-08-22T03:01:33.426Z,100168.00
2022-08-22T03:04:22.109Z,100170.20
2022-08-22T03:06:58.899Z,100171.80
2022-08-22T03:10:05.617Z,100171.80
2022-08-22T03:12:55.777Z,100172.00
2022-08-22T03:15:34.604Z,100169.60
2022-08-22T03:18:21.545Z,100170.60
2022-08-22T03:20:55.411Z,100173.20
2022-08-22T03:23:28.946Z,100173.80
2022-08-22T03:26:07.496Z,100171.80
2022-08-22T03:28:58.933Z,100179.20
2022-08-22T03:31:31.333Z,100177.60
2022-08-22T03:34:22.835Z,100182.40
2022-08-22T03:37:17.881Z,100186.00
2022-08-22T03:39:51.685Z,100187.00
2022-08-22T03:42:38.392Z,100181.40
2022-08-22T03:45:26.582Z,100184.00
2022-08-22T03:48:18.643Z,100185.40
2022-08-22T03:51:13.473Z,100191.40
2022-08-22T03:54:15.350Z,100195.00
2022-08-22T03:56:54.051Z,100194.60
2022-08-22T03:59:54.125Z,100193.00
2022-08-22T04:02:42.896Z,100192.40
2022-08-22T04:05:52.794Z,100200.60
2022-08-22T04:09:00.167Z,100196.20
2022-08-22T04:11:59.982Z,100200.40
2022-08-22T04:15:11.108Z,100194.60
2022-08-22T04:18:28.413Z,100198.60
2022-08-22T04:21:13.919Z,100200.00
2022-08-22T04:23:50.832Z,100205.60
2022-08-22T04:26:33.213Z,100208.00
2022-08-22T04:29:07.932Z,100208.80
2022-08-22T04:31:46.527Z,100207.60
2022-08-22T04:34:27.563Z,100208.80
2022-08-22T04:37:04.339Z,100211.20
2022-08-22T04:39:48.240Z,100212.80
2022-08-22T04:42:33.497Z,100219.20
2022-08-22T04:45:17.165Z,100225.80
2022-08-22T04:48:00.230Z,100223.60
2022-08-22T04:50:34.942Z,100222.20
2022-08-22T04:53:23.196Z,100227.40
2022-08-22T04:56:22.329Z,100226.80
2022-08-22T04:58:57.357Z,100223.00
2022-08-22T05:01:27.180Z,100222.80
2022-08-22T05:04:00.753Z,100223.60
2022-08-22T05:06:32.649Z,100221.60
2022-08-22T05:09:05.933Z,100224.80
2022-08-22T05:11:34.854Z,100229.40
2022-08-22T05:14:12.242Z,100230.80
2022-08-22T05:16:41.952Z,100233.40
2022-08-22T05:19:25.064Z,100234.20
2022-08-22T05:21:57.619Z,100236.40
2022-08-22T05:24:32.546Z,100237.00
2022-08-22T05:27:04.675Z,100237.00
2022-08-22T05:29:33.025Z,100243.40
2022-08-22T05:32:06.828Z,100246.40
2022-08-22T05:34:38.903Z,100250.00
2022-08-22T05:37:19.495Z,100249.00
2022-08-22T05:39:50.811Z,100246.00
2022-08-22T05:42:33.812Z,100249.00
2022-08-22T05:45:03.220Z,100250.00
2022-08-22T05:47:36.505Z,100249.60
2022-08-22T05:50:23.916Z,100248.20
2022-08-22T05:53:09.994Z,100247.00
2022-08-22T05:55:52.948Z,100248.40
2022-08-22T05:58:39.180Z,100249.80
2022-08-22T06:01:25.577Z,100249.40
2022-08-22T06:04:41.412Z,100249.60
2022-08-22T06:07:27.655Z,100247.00
2022-08-22T06:09:55.301Z,100247.00
2022-08-22T06:12:39.316Z,100245.60
2022-08-22T06:15:21.299Z,100245.80
2022-08-22T06:17:52.609Z,100247.60
2022-08-22T06:21:21.650Z,100249.00
2022-08-22T06:23:57.747Z,100245.40
2022-08-22T06:26:35.512Z,100252.00
2022-08-22T06:29:07.367Z,100248.40
2022-08-22T06:31:45.942Z,100252.20
2022-08-22T06:34:24.793Z,100256.00
2022-08-22T06:36:54.585Z,100253.20
2022-08-22T06:39:35.672Z,100252.60
2022-08-22T06:42:15.979Z,100253.20
2022-08-22T06:45:02.889Z,100251.00
2022-08-22T06:47:37.203Z,100251.60
2022-08-22T06:50:21.129Z,100254.20
2022-08-22T06:53:11.763Z,100256.80
2022-08-22T06:55:46.278Z,100258.80
2022-08-22T06:58:18.296Z,100257.60
2022-08-22T07:00:52.422Z,100253.40
2022-08-22T07:03:38.434Z,100263.20
2022-08-22T07:06:13.002Z,100259.00
2022-08-22T07:08:41.119Z,100263.00
2022-08-22T07:11:24.586Z,100259.00
2022-08-22T07:14:02.702Z,100257.20
2022-08-22T07:16:48.176Z,100260.60
2022-08-22T07:19:59.599Z,100266.00
2022-08-22T07:22:35.092Z,100271.80
2022-08-22T07:25:15.405Z,100272.40
2022-08-22T07:28:51.493Z,100271.40
2022-08-22T07:31:37.871Z,100273.20
2022-08-22T07:34:35.876Z,100278.60
2022-08-22T07:37:23.792Z,100269.80
2022-08-22T07:39:59.583Z,100274.60
2022-08-22T07:42:43.352Z,100273.60
2022-08-22T07:45:39.330Z,100276.40
2022-08-22T07:48:31.724Z,100278.80
2022-08-22T07:51:13.534Z,100284.20
2022-08-22T07:53:49.219Z,100284.00
2022-08-22T07:56:24.196Z,100285.60
2022-08-22T07:58:58.084Z,100284.60
2022-08-22T08:01:27.304Z,100288.60
2022-08-22T08:04:08.440Z,100283.00
2022-08-22T08:06:36.769Z,100285.40
2022-08-22T08:09:05.164Z,100279.60
2022-08-22T08:11:40.477Z,100280.20
2022-08-22T08:14:13.483Z,100279.60
2022-08-22T08:17:19.772Z,100278.80
2022-08-22T08:19:50.707Z,100280.20
2022-08-22T08:22:24.860Z,100283.80
2022-08-22T08:24:57.286Z,100289.60
2022-08-22T08:27:50.279Z,100290.00
2022-08-22T08:30:24.919Z,100291.20
2022-08-22T08:33:24.074Z,100289.40
2022-08-22T08:36:09.970Z,100285.00
2022-08-22T08:38:55.319Z,100286.40
2022-08-22T08:42:03.101Z,100285.40
2022-08-22T08:45:28.877Z,100283.20
2022-08-22T08:48:23.139Z,100286.20
2022-08-22T08:51:09.249Z,100287.80
2022-08-22T08:54:33.778Z,100289.60
2022-08-22T08:57:31.660Z,100289.00
2022-08-22T09:00:15.112Z,100283.80
2022-08-22T09:02:58.783Z,100285.60
2022-08-22T09:05:55.805Z,100284.80
2022-08-22T09:08:51.608Z,100287.80
2022-08-22T09:11:53.216Z,100280.00
2022-08-22T09:14:45.573Z,100276.60
2022-08-22T09:17:45.067Z,100283.80
2022-08-22T09:20:25.236Z,100284.60
2022-08-22T09:23:24.019Z,100284.40
2022-08-22T09:26:04.956Z,100286.80
2022-08-22T09:28:58.993Z,100284.40
2022-08-22T09:31:48.188Z,100284.60
2022-08-22T09:34:53.964Z,100277.60
2022-08-22T09:37:33.869Z,100285.80
2022-08-22T09:40:23.371Z,100282.40
2022-08-22T09:43:12.947Z,100286.40
2022-08-22T09:45:54.395Z,100285.80
2022-08-22T09:48:48.018Z,100280.80
2022-08-22T09:51:38.801Z,100285.60
2022-08-22T09:54:31.510Z,100284.00
2022-08-22T09:57:22.538Z,100279.80
2022-08-22T10:00:05.807Z,100280.00
2022-08-22T10:03:01.437Z,100282.80
2022-08-22T10:05:55.002Z,100283.40
2022-08-22T10:08:46.778Z,100282.20
2022-08-22T10:11:24.294Z,100282.40
2022-08-22T10:14:03.064Z,100280.40
2022-08-22T10:17:07.649Z,100278.20
2022-08-22T10:19:47.118Z,100282.40
2022-08-22T10:22:44.584Z,100284.80
2022-08-22T10:25:42.212Z,100285.80
2022-08-22T10:28:16.532Z,100290.40
2022-08-22T10:30:47.494Z,100291.40
2022-08-22T10:33:29.056Z,100295.40
2022-08-22T10:36:15.929Z,100294.40
2022-08-22T10:38:56.095Z,100294.60
2022-08-22T10:41:59.835Z,100291.40
2022-08-22T10:44:41.132Z,100290.60
2022-08-22T10:47:18.081Z,100286.00
2022-08-22T10:49:53.311Z,100291.80
2022-08-22T10:52:31.337Z,100292.80
2022-08-22T10:55:09.644Z,100292.20
2022-08-22T10:58:04.711Z,100298.20
2022-08-22T11:00:58.624Z,100298.20
2022-08-22T11:03:57.484Z,100296.80
2022-08-22T11:07:09.446Z,100290.20
2022-08-22T11:09:51.640Z,100292.80
2022-08-22T11:12:37.373Z,100293.80
2022-08-22T11:15:35.195Z,100290.20
2022-08-22T11:18:36.645Z,100286.40
2022-08-22T11:22:03.763Z,100290.80
2022-08-22T11:24:35.657Z,100291.80
2022-08-22T11:27:45.075Z,100288.80
2022-08-22T11:30:18.538Z,100290.00
2022-08-22T11:33:00.187Z,100291.40
2022-08-22T11:35:44.908Z,100294.80
2022-08-22T11:38:36.303Z,100295.60
2022-08-22T11:41:15.021Z,100287.00
2022-08-22T11:43:50.998Z,100290.20
2022-08-22T11:46:22.670Z,100286.80
2022-08-22T11:49:10.814Z,100288.40
2022-08-22T11:52:19.899Z,100290.80
2022-08-22T11:55:21.456Z,100294.00
2022-08-22T11:58:19.895Z,100287.80
2022-08-22T12:01:17.259Z,100297.80
2022-08-22T12:03:59.637Z,100299.40
2022-08-22T12:06:54.558Z,100301.40
2022-08-22T12:09:37.968Z,100301.80
2022-08-22T12:12:45.295Z,100298.00
2022-08-22T12:15:35.014Z,100293.80
2022-08-22T12:18:27.794Z,100294.40
2022-08-22T12:21:40.795Z,100293.40
2022-08-22T12:24:41.667Z,100293.20
2022-08-22T12:27:55.265Z,100293.60
2022-08-22T12:31:08.623Z,100296.40
2022-08-22T12:33:42.488Z,100293.40
2022-08-22T12:36:40.973Z,100294.00
2022-08-22T12:39:41.090Z,100289.00
2022-08-22T12:42:46.181Z,100290.20
2022-08-22T12:45:28.887Z,100288.40
2022-08-22T12:48:43.069Z,100288.00
2022-08-22T12:51:42.995Z,100285.60
2022-08-22T12:54:56.653Z,100282.80
2022-08-22T12:57:39.525Z,100284.20
2022-08-22T13:00:37.251Z,100285.20
2022-08-22T13:03:33.677Z,100281.80
2022-08-22T13:06:27.076Z,100285.00
2022-08-22T13:08:55.473Z,100285.60
2022-08-22T13:11:23.803Z,100290.20
2022-08-22T13:13:58.675Z,100285.60
2022-08-22T13:16:39.038Z,100283.80
2022-08-22T13:19:18.609Z,100282.40
2022-08-22T13:21:52.950Z,100282.20
2022-08-22T13:24:55.282Z,100284.60
2022-08-22T13:27:34.764Z,100286.00
2022-08-22T13:30:12.404Z,100281.80
2022-08-22T13:32:54.712Z,100282.80
2022-08-22T13:35:30.691Z,100283.00
2022-08-22T13:38:25.647Z,100283.20
2022-08-22T13:40:57.691Z,100281.60
2022-08-22T13:43:54.791Z,100278.80
2022-08-22T13:46:28.236Z,100278.60
2022-08-22T13:49:01.270Z,100276.40
2022-08-22T13:52:01.644Z,100275.80
2022-08-22T13:54:58.031Z,100275.00
2022-08-22T13:57:54.157Z,100271.00
2022-08-22T14:01:15.172Z,100268.80
2022-08-22T14:03:57.328Z,100269.20
2022-08-22T14:07:13.173Z,100270.20
2022-08-22T14:10:18.648Z,100268.80
2022-08-22T14:12:56.494Z,100262.60
2022-08-22T14:15:45.452Z,100262.40
2022-08-22T14:18:30.004Z,100260.80
2022-08-22T14:21:33.454Z,100254.40
2022-08-22T14:24:20.628Z,100257.20
2022-08-22T14:27:06.439Z,100255.40
2022-08-22T14:29:54.879Z,100251.60
2022-08-22T14:32:27.631Z,100254.60
2022-08-22T14:35:21.522Z,100255.60
2022-08-22T14:38:35.655Z,100257.40
2022-08-22T14:41:13.955Z,100254.80
2022-08-22T14:44:02.056Z,100256.20
2022-08-22T14:47:04.200Z,100254.80
2022-08-22T14:49:59.571Z,100254.00
2022-08-22T14:52:45.357Z,100253.60
2022-08-22T14:55:30.462Z,100254.00
2022-08-22T14:58:07.638Z,100258.00
2022-08-22T15:00:46.949Z,100260.20
2022-08-22T15:03:34.951Z,100256.20
2022-08-22T15:06:29.129Z,100258.60
2022-08-22T15:08:57.873Z,100253.40
2022-08-22T15:11:31.890Z,100255.60
2022-08-22T15:14:23.640Z,100248.60
2022-08-22T15:16:59.592Z,100246.40
2022-08-22T15:19:41.060Z,100249.80
2022-08-22T15:22:14.914Z,100248.40
2022-08-22T15:25:04.532Z,100248.40
2022-08-22T15:27:42.609Z,100250.40
2022-08-22T15:30:18.797Z,100249.00
2022-08-22T15:32:49.133Z,100248.80
2022-08-22T15:35:31.300Z,100242.80
2022-08-22T15:38:05.832Z,100243.00
2022-08-22T15:40:45.712Z,100238.20
2022-08-22T15:43:35.789Z,100235.80
2022-08-22T15:46:27.386Z,100240.60
2022-08-22T15:49:27.895Z,100237.80
2022-08-22T15:52:01.847Z,100236.00
2022-08-22T15:54:55.113Z,100234.40
2022-08-22T15:57:40.599Z,100232.40
2022-08-22T16:00:36.752Z,100229.20
2022-08-22T16:03:33.250Z,100229.40
2022-08-22T16:06:07.887Z,100229.60
2022-08-22T16:08:35.677Z,100230.20
2022-08-22T16:11:03.317Z,100228.40
2022-08-22T16:13:31.090Z,100232.60
2022-08-22T16:16:03.183Z,100232.40
2022-08-22T16:18:33.940Z,100239.20
2022-08-22T16:21:17.412Z,100244.80
2022-08-22T16:23:54.248Z,100246.80
2022-08-22T16:26:30.979Z,100247.00
2022-08-22T16:29:13.633Z,100245.00
2022-08-22T16:31:48.547Z,100249.80
2022-08-22T16:34:16.441Z,100249.20
2022-08-22T16:36:54.754Z,100251.40
2022-08-22T16:39:22.452Z,100250.40
2022-08-22T16:41:54.200Z,100253.40
2022-08-22T16:44:28.176Z,100254.60
2022-08-22T16:47:20.114Z,100256.20
2022-08-22T16:49:50.930Z,100253.60
2022-08-22T16:52:22.220Z,100247.20
2022-08-22T16:54:52.761Z,100247.80
2022-08-22T16:58:05.122Z,100247.20
2022-08-22T17:00:51.199Z,100250.40
2022-08-22T17:03:37.207Z,100251.00
2022-08-22T17:06:56.314Z,100251.60
2022-08-22T17:09:47.401Z,100260.00
2022-08-22T17:12:39.579Z,100257.60
2022-08-22T17:15:30.979Z,100260.40
2022-08-22T17:18:35.593Z,100266.20
2022-08-22T17:21:29.556Z,100271.60
2022-08-22T17:24:33.529Z,100272.00
2022-08-22T17:27:30.317Z,100281.80
2022-08-22T17:30:20.315Z,100285.80
2022-08-22T17:33:15.546Z,100291.40
2022-08-22T17:36:08.744Z,100291.40
2022-08-22T17:39:37.472Z,100283.60
2022-08-22T17:42:35.574Z,100288.00
2022-08-22T17:45:42.013Z,100295.40
2022-08-22T17:48:26.651Z,100299.00
2022-08-22T17:51:11.621Z,100298.80
2022-08-22T17:53:56.442Z,100302.40
2022-08-22T17:57:00.445Z,100307.80
2022-08-22T18:00:15.731Z,100309.00
2022-08-22T18:02:51.137Z,100310.60
2022-08-22T18:05:33.849Z,100315.80
2022-08-22T18:11:55.475Z,100318.60
2022-08-22T18:14:47.409Z,100314.20
2022-08-22T18:17:37.494Z,100324.40
2022-08-22T18:20:23.867Z,100325.40
2022-08-22T18:23:21.439Z,100332.40
2022-08-22T18:26:20.583Z,100332.00
2022-08-22T18:29:19.725Z,100332.80
2022-08-22T18:32:11.149Z,100331.80
2022-08-22T18:35:02.827Z,100337.00
2022-08-22T18:37:30.681Z,100340.40
2022-08-22T18:40:03.803Z,100343.00
2022-08-22T18:42:49.883Z,100342.00
2022-08-22T18:45:46.882Z,100340.40
2022-08-22T18:48:34.272Z,100336.60
2022-08-22T18:51:27.286Z,100335.80
2022-08-22T18:54:03.946Z,100327.20
2022-08-22T18:56:33.177Z,100336.20
2022-08-22T18:59:20.730Z,100338.80
2022-08-22T19:02:21.807Z,100336.40
2022-08-22T19:05:21.731Z,100334.40
2022-08-22T19:08:26.635Z,100329.20
2022-08-22T19:11:50.426Z,100324.00
2022-08-22T19:14:52.091Z,100322.20
2022-08-22T19:17:37.454Z,100328.20
2022-08-22T19:20:48.818Z,100333.80
2022-08-22T19:23:31.895Z,100333.20
2022-08-22T19:26:30.750Z,100336.00
2022-08-22T19:29:24.413Z,100335.60
2022-08-22T19:32:13.223Z,100326.60
2022-08-22T19:34:46.942Z,100323.20
2022-08-22T19:37:33.202Z,100320.40
2022-08-22T19:40:12.275Z,100324.20
2022-08-22T19:42:43.072Z,100326.80
2022-08-22T19:45:29.056Z,100324.60
2022-08-22T19:48:14.223Z,100318.80
2022-08-22T19:50:43.765Z,100327.20
2022-08-22T19:53:46.007Z,100334.80
2022-08-22T19:56:36.933Z,100337.20
2022-08-22T19:59:24.140Z,100337.60
2022-08-22T20:01:57.311Z,100340.00
2022-08-22T20:05:01.943Z,100345.80
2022-08-22T20:07:47.157Z,100341.00
2022-08-22T20:10:34.784Z,100341.40
2022-08-22T20:13:18.046Z,100345.80
2022-08-22T20:16:17.144Z,100343.00
2022-08-22T20:19:08.798Z,100343.20
2022-08-22T20:21:50.346Z,100340.00
2022-08-22T20:24:46.643Z,100336.00
2022-08-22T20:27:28.714Z,100327.60
2022-08-22T20:30:07.627Z,100333.40
2022-08-22T20:33:09.987Z,100326.20
2022-08-22T20:35:55.120Z,100325.00
2022-08-22T20:38:30.052Z,100326.80
2022-08-22T20:41:11.105Z,100326.20
2022-08-22T20:43:55.558Z,100331.40
2022-08-22T20:46:33.313Z,100333.00
2022-08-22T20:49:02.158Z,100335.80
2022-08-22T20:51:33.794Z,100336.60
2022-08-22T20:54:19.412Z,100336.20
2022-08-22T20:57:01.939Z,100336.00
2022-08-22T20:59:37.023Z,100339.60
2022-08-22T21:02:16.122Z,100341.00
2022-08-22T21:05:18.432Z,100336.40
2022-08-22T21:08:00.840Z,100331.20
2022-08-22T21:10:55.444Z,100330.20
2022-08-22T21:13:35.238Z,100327.80
2022-08-22T21:16:20.779Z,100325.40
2022-08-22T21:18:52.494Z,100319.00
2022-08-22T21:21:25.140Z,100323.00
2022-08-22T21:24:00.824Z,100324.40
2022-08-22T21:26:36.649Z,100327.00
2022-08-22T21:29:13.401Z,100323.20
2022-08-22T21:31:52.740Z,100315.60
2022-08-22T21:34:53.692Z,100322.00
2022-08-22T21:37:45.098Z,100322.20
2022-08-22T21:40:32.271Z,100317.60
2022-08-22T21:43:11.526Z,100306.80
2022-08-22T21:45:39.203Z,100307.20
2022-08-22T21:48:45.764Z,100310.60
2022-08-22T21:51:24.281Z,100312.40
2022-08-22T21:54:31.225Z,100315.40
2022-08-22T21:57:16.676Z,100317.40
2022-08-22T21:59:51.387Z,100318.00
2022-08-22T22:02:45.450Z,100312.40
2022-08-22T22:05:17.656Z,100302.80
2022-08-22T22:07:47.426Z,100303.00
2022-08-22T22:10:19.289Z,100308.40
2022-08-22T22:12:49.545Z,100306.60
2022-08-22T22:15:20.590Z,100302.00
2022-08-22T22:17:48.796Z,100293.60
2022-08-22T22:20:19.352Z,100293.00
2022-08-22T22:22:47.686Z,100288.60
2022-08-22T22:25:38.976Z,100285.80
2022-08-22T22:28:15.033Z,100284.80
2022-08-22T22:30:45.728Z,100279.80
2022-08-22T22:33:13.759Z,100277.00
2022-08-22T22:35:41.710Z,100280.40
2022-08-22T22:38:10.129Z,100279.20
2022-08-22T22:40:38.200Z,100278.40
2022-08-22T22:43:05.888Z,100277.00
2022-08-22T22:45:33.956Z,100277.80
2022-08-22T22:48:01.914Z,100276.80
2022-08-22T22:50:30.009Z,100273.80
2022-08-22T22:52:57.838Z,100274.80
2022-08-22T22:55:25.824Z,100274.40
2022-08-22T22:57:59.130Z,100271.40
2022-08-22T23:00:31.420Z,100280.40
2022-08-22T23:03:02.569Z,100283.20
2022-08-22T23:05:31.607Z,100285.20
2022-08-22T23:08:00.610Z,100281.20
2022-08-22T23:10:30.669Z,100282.00
2022-08-22T23:12:59.507Z,100280.40
2022-08-22T23:15:28.268Z,100286.40
2022-08-22T23:17:56.324Z,100290.20
2022-08-22T23:20:24.571Z,100292.00
2022-08-22T23:22:52.468Z,100293.40
2022-08-22T23:25:20.633Z,100295.00
2022-08-22T23:27:48.790Z,100291.00
2022-08-22T23:30:26.383Z,100285.40
2022-08-22T23:32:55.736Z,100283.20
2022-08-22T23:35:23.620Z,100280.60
2022-08-22T23:37:51.467Z,100281.80
2022-08-22T23:40:19.488Z,100279.40
2022-08-22T23:42:47.398Z,100279.80
2022-08-22T23:45:15.113Z,100281.60
2022-08-22T23:47:42.903Z,100279.60
2022-08-22T23:50:10.891Z,100282.60
2022-08-22T23:52:38.669Z,100287.40
2022-08-22T23:55:07.180Z,100290.80
2022-08-22T23:57:35.075Z,100295.80
